createdAt,value
2022-10-24T00:00:42.010Z,42.33
2022-10-24T00:02:46.755Z,42.36
2022-10-24T00:04:51.133Z,42.38
2022-10-24T00:06:55.461Z,42.38
2022-10-24T00:08:59.844Z,42.45
2022-10-24T00:11:04.168Z,42.41
2022-10-24T00:13:08.501Z,42.45
2022-10-24T00:15:12.929Z,42.55
2022-10-24T00:17:17.265Z,42.53
2022-10-24T00:19:21.556Z,42.65
2022-10-24T00:21:25.901Z,42.73
2022-10-24T00:23:30.285Z,42.7
2022-10-24T00:25:34.670Z,42.83
2022-10-24T00:27:39.007Z,42.73
2022-10-24T00:29:43.401Z,42.8
2022-10-24T00:31:47.761Z,42.89
2022-10-24T00:33:52.131Z,42.87
2022-10-24T00:35:56.492Z,42.9
2022-10-24T00:38:00.806Z,42.98
2022-10-24T00:40:05.142Z,42.94
2022-10-24T00:42:09.525Z,43.05
2022-10-24T00:44:13.898Z,42.98
2022-10-24T00:46:18.228Z,43.01
2022-10-24T00:48:22.607Z,43.13
2022-10-24T00:50:26.901Z,43.11
2022-10-24T00:52:31.243Z,43.1
2022-10-24T00:54:35.586Z,43.11
2022-10-24T00:56:39.929Z,43.19
2022-10-24T00:58:44.258Z,43.26
2022-10-24T01:00:48.764Z,43.37
2022-10-24T01:02:53.143Z,43.4
2022-10-24T01:04:57.493Z,43.46
2022-10-24T01:07:01.864Z,43.45
2022-10-24T01:09:06.221Z,43.53
2022-10-24T01:11:10.584Z,43.5
2022-10-24T01:13:14.910Z,43.57
2022-10-24T01:15:19.281Z,43.59
2022-10-24T01:17:23.614Z,43.64
2022-10-24T01:19:27.946Z,43.62
2022-10-24T01:21:32.330Z,43.6
2022-10-24T01:23:36.657Z,43.69
2022-10-24T01:25:40.974Z,43.61
2022-10-24T01:27:46.231Z,43.6
2022-10-24T01:29:50.686Z,43.62
2022-10-24T01:31:54.985Z,43.61
2022-10-24T01:33:59.316Z,43.63
2022-10-24T01:36:03.626Z,43.55
2022-10-24T01:38:07.911Z,43.49
2022-10-24T01:40:12.226Z,43.59
2022-10-24T01:42:16.496Z,43.6
2022-10-24T01:44:20.824Z,43.65
2022-10-24T01:46:25.097Z,43.67
2022-10-24T01:48:29.365Z,43.74
2022-10-24T01:50:33.745Z,43.7
2022-10-24T01:52:38.043Z,43.8
2022-10-24T01:54:42.373Z,43.77
2022-10-24T01:56:46.664Z,43.71
2022-10-24T01:58:50.949Z,43.86
2022-10-24T02:00:55.256Z,43.81
2022-10-24T02:02:59.521Z,43.72
2022-10-24T02:05:03.836Z,43.78
2022-10-24T02:07:08.136Z,43.73
2022-10-24T02:09:12.413Z,43.81
2022-10-24T02:11:16.755Z,43.85
2022-10-24T02:13:21.031Z,43.85
2022-10-24T02:15:25.355Z,43.76
2022-10-24T02:17:30.711Z,43.83
2022-10-24T02:19:34.977Z,43.88
2022-10-24T02:21:39.289Z,43.84
2022-10-24T02:23:43.542Z,43.83
2022-10-24T02:25:47.924Z,43.86
2022-10-24T02:27:52.197Z,43.79
2022-10-24T02:29:56.473Z,43.85
2022-10-24T02:32:00.754Z,43.8
2022-10-24T02:34:05.289Z,43.86
2022-10-24T02:36:09.671Z,43.87
2022-10-24T02:38:13.994Z,43.94
2022-10-24T02:40:18.280Z,43.92
2022-10-24T02:42:22.783Z,43.92
2022-10-24T02:44:27.084Z,43.93
2022-10-24T02:46:31.375Z,43.98
2022-10-24T02:48:35.685Z,44.02
2022-10-24T02:50:40.322Z,43.95
2022-10-24T02:52:45.804Z,44.04
2022-10-24T02:54:50.256Z,43.94
2022-10-24T02:56:54.508Z,44.04
2022-10-24T02:58:59.070Z,43.98
2022-10-24T03:01:04.004Z,43.88
2022-10-24T03:03:08.364Z,44.02
2022-10-24T03:05:12.662Z,44.09
2022-10-24T03:07:17.028Z,44.03
2022-10-24T03:09:21.489Z,44.09
2022-10-24T03:11:25.809Z,44.03
2022-10-24T03:13:30.076Z,44.05
2022-10-24T03:15:34.427Z,44.03
2022-10-24T03:17:38.769Z,44.03
2022-10-24T03:19:43.049Z,44.04
2022-10-24T03:21:47.360Z,44.08
2022-10-24T03:23:51.656Z,44.02
2022-10-24T03:25:55.960Z,44.1
2022-10-24T03:28:00.265Z,43.99
2022-10-24T03:30:04.585Z,44.04
2022-10-24T03:32:08.891Z,43.98
2022-10-24T03:34:13.164Z,44.11
2022-10-24T03:36:17.491Z,43.99
2022-10-24T03:38:21.768Z,44.04
2022-10-24T03:40:26.071Z,44.02
2022-10-24T03:42:30.379Z,44.04
2022-10-24T03:44:34.661Z,44.07
2022-10-24T03:46:38.969Z,44.01
2022-10-24T03:48:43.294Z,43.96
2022-10-24T03:50:47.633Z,43.95
2022-10-24T03:52:51.925Z,43.97
2022-10-24T03:54:56.249Z,43.99
2022-10-24T03:57:00.537Z,43.92
2022-10-24T03:59:04.838Z,43.85
2022-10-24T04:01:09.418Z,43.9
2022-10-24T04:03:13.772Z,43.9
2022-10-24T04:05:18.062Z,43.95
2022-10-24T04:07:22.398Z,43.97
2022-10-24T04:09:26.707Z,43.81
2022-10-24T04:11:30.979Z,43.98
2022-10-24T04:13:35.308Z,43.9
2022-10-24T04:15:39.596Z,43.83
2022-10-24T04:17:44.884Z,43.87
2022-10-24T04:19:49.278Z,44.08
2022-10-24T04:21:53.608Z,43.99
2022-10-24T04:23:57.889Z,44.01
2022-10-24T04:26:02.335Z,43.97
2022-10-24T04:28:06.649Z,43.96
2022-10-24T04:30:17.916Z,44.02
2022-10-24T04:32:22.261Z,43.97
2022-10-24T04:34:26.579Z,44.03
2022-10-24T04:36:30.858Z,44.08
2022-10-24T04:38:35.816Z,44.04
2022-10-24T04:40:40.087Z,44.04
2022-10-24T04:42:45.570Z,44.04
2022-10-24T04:44:50.041Z,43.99
2022-10-24T04:46:54.647Z,43.97
2022-10-24T04:48:58.995Z,44.02
2022-10-24T04:51:03.286Z,44.02
2022-10-24T04:53:07.545Z,44.06
2022-10-24T04:55:11.850Z,44.02
2022-10-24T04:57:16.186Z,43.99
2022-10-24T04:59:20.494Z,44.01
2022-10-24T05:01:25.077Z,44.04
2022-10-24T05:03:29.413Z,44.01
2022-10-24T05:05:33.750Z,44.11
2022-10-24T05:07:38.050Z,44.07
2022-10-24T05:09:42.345Z,44.17
2022-10-24T05:11:46.681Z,44.16
2022-10-24T05:13:50.959Z,44.11
2022-10-24T05:15:55.290Z,44.12
2022-10-24T05:17:59.560Z,44.24
2022-10-24T05:20:03.879Z,44.26
2022-10-24T05:22:12.158Z,44.21
2022-10-24T05:24:16.468Z,44.16
2022-10-24T05:26:20.799Z,44.23
2022-10-24T05:28:25.094Z,44.18
2022-10-24T05:30:29.377Z,44.25
2022-10-24T05:32:40.549Z,44.33
2022-10-24T05:34:44.862Z,44.23
2022-10-24T05:36:49.155Z,44.3
2022-10-24T05:38:53.478Z,44.3
2022-10-24T05:40:57.763Z,44.31
2022-10-24T05:43:02.087Z,44.32
2022-10-24T05:45:06.386Z,44.29
2022-10-24T05:47:10.677Z,44.29
2022-10-24T05:49:15.011Z,44.33
2022-10-24T05:51:19.280Z,44.27
2022-10-24T05:53:23.570Z,44.28
2022-10-24T05:55:27.888Z,44.21
2022-10-24T05:57:32.205Z,44.21
2022-10-24T05:59:36.521Z,44.17
2022-10-24T06:01:41.561Z,44.27
2022-10-24T06:03:46.087Z,44.23
2022-10-24T06:05:50.376Z,44.38
2022-10-24T06:07:54.664Z,44.26
2022-10-24T06:09:58.979Z,44.35
2022-10-24T06:12:03.307Z,44.72
2022-10-24T06:14:07.629Z,45.11
2022-10-24T06:16:11.924Z,45.28
2022-10-24T06:18:16.183Z,45.36
2022-10-24T06:20:20.479Z,45.41
2022-10-24T06:22:24.781Z,45.33
2022-10-24T06:24:29.083Z,45.41
2022-10-24T06:26:33.391Z,45.57
2022-10-24T06:28:37.652Z,45.55
2022-10-24T06:30:41.959Z,45.87
2022-10-24T06:32:47.593Z,45.86
2022-10-24T06:34:52.104Z,45.85
2022-10-24T06:36:56.426Z,45.96
2022-10-24T06:39:00.806Z,46.15
2022-10-24T06:41:05.143Z,46.39
2022-10-24T06:43:09.479Z,46.59
2022-10-24T06:45:13.798Z,46.83
2022-10-24T06:47:18.182Z,46.84
2022-10-24T06:49:22.497Z,47.11
2022-10-24T06:51:26.798Z,47.02
2022-10-24T06:53:31.159Z,47.13
2022-10-24T06:55:35.480Z,47.04
2022-10-24T06:57:39.811Z,47.09
2022-10-24T06:59:44.895Z,47.01
2022-10-24T07:01:49.720Z,46.94
2022-10-24T07:03:57.012Z,46.87
2022-10-24T07:06:05.018Z,46.85
2022-10-24T07:08:09.422Z,46.81
2022-10-24T07:10:13.786Z,46.78
2022-10-24T07:14:22.545Z,46.79
2022-10-24T07:16:26.810Z,46.71
2022-10-24T07:18:31.108Z,46.71
2022-10-24T07:20:35.726Z,46.79
2022-10-24T07:22:40.143Z,46.76
2022-10-24T07:24:44.435Z,46.71
2022-10-24T07:26:48.752Z,46.7
2022-10-24T07:28:53.446Z,46.71
2022-10-24T07:30:57.923Z,46.7
2022-10-24T07:33:02.258Z,46.69
2022-10-24T07:35:06.581Z,46.71
2022-10-24T07:37:10.953Z,46.74
2022-10-24T07:39:15.271Z,46.76
2022-10-24T07:41:19.573Z,46.86
2022-10-24T07:43:23.855Z,47
2022-10-24T07:45:28.159Z,47.12
2022-10-24T07:47:32.447Z,47.1
2022-10-24T07:49:36.837Z,47.12
2022-10-24T07:51:41.115Z,47.23
2022-10-24T07:53:45.441Z,47.38
2022-10-24T07:55:49.797Z,47.69
2022-10-24T07:57:54.077Z,48.23
2022-10-24T07:59:58.554Z,48.28
2022-10-24T08:02:02.926Z,48.63
2022-10-24T08:04:07.244Z,48.7
2022-10-24T08:06:11.508Z,48.91
2022-10-24T08:08:39.140Z,49.2
2022-10-24T08:10:43.719Z,49.21
2022-10-24T08:12:48.997Z,49.14
2022-10-24T08:14:53.312Z,48.56
2022-10-24T08:16:57.646Z,48.7
2022-10-24T08:19:02.203Z,48.5
2022-10-24T08:21:06.528Z,48.19
2022-10-24T08:23:10.803Z,48
2022-10-24T08:25:15.240Z,47.59
2022-10-24T08:27:19.557Z,47.51
2022-10-24T08:29:23.881Z,47.59
2022-10-24T08:31:28.219Z,47.58
2022-10-24T08:33:32.504Z,47.61
2022-10-24T08:35:36.785Z,47.59
2022-10-24T08:37:41.122Z,47.33
2022-10-24T08:39:45.420Z,47.31
2022-10-24T08:41:49.723Z,47.47
2022-10-24T08:43:54.025Z,47.54
2022-10-24T08:45:58.357Z,47.48
2022-10-24T08:48:02.669Z,47.39
2022-10-24T08:50:06.954Z,47.33
2022-10-24T08:52:11.283Z,47.32
2022-10-24T08:54:15.593Z,47.51
2022-10-24T08:56:19.880Z,47.61
2022-10-24T08:58:24.194Z,47.47
2022-10-24T09:00:28.538Z,47.41
2022-10-24T09:02:33.508Z,47.53
2022-10-24T09:04:37.809Z,47.58
2022-10-24T09:06:42.252Z,47.69
2022-10-24T09:08:46.577Z,47.68
2022-10-24T09:10:50.901Z,47.62
2022-10-24T09:12:55.180Z,47.55
2022-10-24T09:14:59.922Z,47.33
2022-10-24T09:17:04.232Z,47.29
2022-10-24T09:19:08.547Z,47.27
2022-10-24T09:21:12.824Z,47.19
2022-10-24T09:23:17.189Z,47.25
2022-10-24T09:25:21.475Z,47.37
2022-10-24T09:27:25.878Z,47.93
2022-10-24T09:29:30.259Z,48.44
2022-10-24T09:31:34.769Z,48.06
2022-10-24T09:33:39.063Z,47.89
2022-10-24T09:35:43.339Z,48.17
2022-10-24T09:37:50.569Z,48.34
2022-10-24T09:39:55.051Z,48.19
2022-10-24T09:41:59.373Z,48.42
2022-10-24T09:44:03.665Z,48.86
2022-10-24T09:46:07.958Z,48.52
2022-10-24T09:48:12.238Z,48.75
2022-10-24T09:50:16.589Z,48.63
2022-10-24T09:52:20.907Z,47.99
2022-10-24T09:54:25.221Z,47.02
2022-10-24T09:56:29.477Z,46.28
2022-10-24T09:58:33.949Z,45.95
2022-10-24T10:00:38.319Z,45.71
2022-10-24T10:02:42.636Z,45.68
2022-10-24T10:04:46.952Z,45.76
2022-10-24T10:06:51.284Z,45.71
2022-10-24T10:08:55.534Z,45.74
2022-10-24T10:10:59.842Z,45.34
2022-10-24T10:13:04.171Z,45.29
2022-10-24T10:15:08.461Z,45.33
2022-10-24T10:17:12.782Z,45.36
2022-10-24T10:19:17.299Z,45.19
2022-10-24T10:21:21.615Z,45.22
2022-10-24T10:23:25.976Z,45.47
2022-10-24T10:25:30.321Z,45.51
2022-10-24T10:27:34.631Z,45.63
2022-10-24T10:29:38.938Z,45.66
2022-10-24T10:31:43.242Z,45.66
2022-10-24T10:33:47.670Z,45.68
2022-10-24T10:35:51.992Z,45.8
2022-10-24T10:37:56.337Z,45.87
2022-10-24T10:40:00.618Z,45.97
2022-10-24T10:42:04.946Z,46.16
2022-10-24T10:44:09.250Z,46.09
2022-10-24T10:46:13.612Z,45.93
2022-10-24T10:48:18.169Z,45.93
2022-10-24T10:50:22.493Z,46.56
2022-10-24T10:52:26.869Z,45.65
2022-10-24T10:54:31.152Z,45.52
2022-10-24T10:56:35.500Z,45.47
2022-10-24T10:58:39.842Z,45.51
2022-10-24T11:00:44.153Z,45.79
2022-10-24T11:02:54.554Z,45.83
2022-10-24T11:04:59.023Z,45.72
2022-10-24T11:07:03.528Z,45.7
2022-10-24T11:09:07.907Z,45.62
2022-10-24T11:11:12.197Z,45.8
2022-10-24T11:13:16.503Z,45.76
2022-10-24T11:15:22.047Z,45.58
2022-10-24T11:17:26.512Z,45.5
2022-10-24T11:19:30.885Z,45.65
2022-10-24T11:21:35.174Z,45.49
2022-10-24T11:23:39.661Z,45.95
2022-10-24T11:25:44.194Z,45.42
2022-10-24T11:27:49.292Z,45.27
2022-10-24T11:29:53.668Z,45.19
2022-10-24T11:31:58.222Z,45.32
2022-10-24T11:34:02.588Z,45.25
2022-10-24T11:36:06.921Z,44.97
2022-10-24T11:38:11.278Z,44.71
2022-10-24T11:40:16.060Z,44.47
2022-10-24T11:42:20.746Z,44.39
2022-10-24T11:44:25.336Z,44.12
2022-10-24T11:46:29.668Z,44.69
2022-10-24T11:48:34.012Z,44.95
2022-10-24T11:50:38.274Z,44.75
2022-10-24T11:52:42.834Z,44.78
2022-10-24T11:54:47.262Z,45.16
2022-10-24T11:56:51.624Z,45.28
2022-10-24T11:58:55.895Z,44.81
2022-10-24T12:01:00.303Z,44.75
2022-10-24T12:03:04.966Z,44.71
2022-10-24T12:05:09.255Z,44.88
2022-10-24T12:07:13.582Z,44.73
2022-10-24T12:09:17.943Z,44.85
2022-10-24T12:11:22.264Z,44.72
2022-10-24T12:13:27.209Z,44.61
2022-10-24T12:15:35.465Z,44.61
2022-10-24T12:17:42.163Z,44.92
2022-10-24T12:19:46.708Z,44.99
2022-10-24T12:21:51.041Z,44.78
2022-10-24T12:23:55.366Z,44.94
2022-10-24T12:25:59.659Z,44.84
2022-10-24T12:28:03.960Z,45
2022-10-24T12:30:08.261Z,45.11
2022-10-24T12:32:12.587Z,45.25
2022-10-24T12:34:17.024Z,45.25
2022-10-24T12:36:21.316Z,45.22
2022-10-24T12:38:25.605Z,45.04
2022-10-24T12:40:29.940Z,44.9
2022-10-24T12:42:34.233Z,44.72
2022-10-24T12:44:38.546Z,44.68
2022-10-24T12:46:42.858Z,44.49
2022-10-24T12:48:47.176Z,44.87
2022-10-24T12:50:51.504Z,44.52
2022-10-24T12:52:55.799Z,44.49
2022-10-24T12:55:00.187Z,44.43
2022-10-24T12:57:04.479Z,44.4
2022-10-24T12:59:09.028Z,44.42
2022-10-24T13:01:13.849Z,44.53
2022-10-24T13:03:18.147Z,44.58
2022-10-24T13:05:22.459Z,44.67
2022-10-24T13:07:26.820Z,44.56
2022-10-24T13:09:31.136Z,44.62
2022-10-24T13:11:35.462Z,44.58
2022-10-24T13:13:39.823Z,44.53
2022-10-24T13:15:44.151Z,44.59
2022-10-24T13:17:49.424Z,45.14
2022-10-24T13:19:53.885Z,45.03
2022-10-24T13:21:58.162Z,45.07
2022-10-24T13:24:02.481Z,45.05
2022-10-24T13:26:06.803Z,45.12
2022-10-24T13:28:11.086Z,45.14
2022-10-24T13:30:15.424Z,45.33
2022-10-24T13:32:22.875Z,45.11
2022-10-24T13:34:27.253Z,45.1
2022-10-24T13:36:31.564Z,45.06
2022-10-24T13:38:35.893Z,45.02
2022-10-24T13:40:40.253Z,45.03
2022-10-24T13:42:45.027Z,45.09
2022-10-24T13:44:49.543Z,45.28
2022-10-24T13:46:56.778Z,45.44
2022-10-24T13:49:01.090Z,45.47
2022-10-24T13:51:05.567Z,45.47
2022-10-24T13:53:09.864Z,45.53
2022-10-24T13:55:14.248Z,45.95
2022-10-24T13:57:18.560Z,45.64
2022-10-24T13:59:22.863Z,45.51
2022-10-24T14:01:27.763Z,45.43
2022-10-24T14:03:32.092Z,45.53
2022-10-24T14:05:36.434Z,45.76
2022-10-24T14:07:40.785Z,45.89
2022-10-24T14:09:45.304Z,46.15
2022-10-24T14:11:49.670Z,46.68
2022-10-24T14:13:54.036Z,46.43
2022-10-24T14:15:58.333Z,47.12
2022-10-24T14:18:02.780Z,47.25
2022-10-24T14:20:07.064Z,47.21
2022-10-24T14:22:11.387Z,47.17
2022-10-24T14:24:15.686Z,47.13
2022-10-24T14:26:19.983Z,46.71
2022-10-24T14:28:24.309Z,46.77
2022-10-24T14:30:36.230Z,46.45
2022-10-24T14:32:40.509Z,46.1
2022-10-24T14:34:44.755Z,46.06
2022-10-24T14:36:49.025Z,45.81
2022-10-24T14:38:53.278Z,45.72
2022-10-24T14:41:10.773Z,45.71
2022-10-24T14:43:15.284Z,45.59
2022-10-24T14:45:19.641Z,45.57
2022-10-24T14:47:23.988Z,45.56
2022-10-24T14:49:28.297Z,45.52
2022-10-24T14:51:40.389Z,45.65
2022-10-24T14:53:44.733Z,46.34
2022-10-24T14:55:49.046Z,46.48
2022-10-24T14:57:53.655Z,46.67
2022-10-24T14:59:57.966Z,46.82
2022-10-24T15:02:02.313Z,46.63
2022-10-24T15:04:06.639Z,46.44
2022-10-24T15:06:10.974Z,46.48
2022-10-24T15:08:24.807Z,46.51
2022-10-24T15:10:29.149Z,46.61
2022-10-24T15:12:33.496Z,46.88
2022-10-24T15:14:37.885Z,46.63
2022-10-24T15:16:42.271Z,46.34
2022-10-24T15:18:46.660Z,46.24
2022-10-24T15:20:50.986Z,46.28
2022-10-24T15:22:55.273Z,46.26
2022-10-24T15:24:59.574Z,46.29
2022-10-24T15:27:03.905Z,46.32
2022-10-24T15:29:08.236Z,46.55
2022-10-24T15:31:12.576Z,46.64
2022-10-24T15:33:16.921Z,46.8
2022-10-24T15:35:21.240Z,46.63
2022-10-24T15:37:25.549Z,46.54
2022-10-24T15:39:29.814Z,46.47
2022-10-24T15:41:34.166Z,46.45
2022-10-24T15:43:38.461Z,46.52
2022-10-24T15:45:42.781Z,46.45
2022-10-24T15:47:47.168Z,46.17
2022-10-24T15:49:51.476Z,46.3
2022-10-24T15:51:55.822Z,46.35
2022-10-24T15:54:00.131Z,46.34
2022-10-24T15:56:04.459Z,46.67
2022-10-24T15:58:08.735Z,46.68
2022-10-24T16:00:13.140Z,46.48
2022-10-24T16:02:17.776Z,46.6
2022-10-24T16:04:22.137Z,46.57
2022-10-24T16:06:26.473Z,46.56
2022-10-24T16:08:30.806Z,46.57
2022-10-24T16:10:35.269Z,46.81
2022-10-24T16:12:39.613Z,46.8
2022-10-24T16:14:43.923Z,46.71
2022-10-24T16:16:48.249Z,46.99
2022-10-24T16:18:52.567Z,46.74
2022-10-24T16:20:56.901Z,46.62
2022-10-24T16:23:01.212Z,46.7
2022-10-24T16:25:05.561Z,46.79
2022-10-24T16:27:09.849Z,46.73
2022-10-24T16:29:14.185Z,46.85
2022-10-24T16:31:18.480Z,46.78
2022-10-24T16:33:22.796Z,46.82
2022-10-24T16:35:27.108Z,46.87
2022-10-24T16:37:31.382Z,47.06
2022-10-24T16:39:35.749Z,47.08
2022-10-24T16:41:40.095Z,46.84
2022-10-24T16:43:50.512Z,46.97
2022-10-24T16:45:54.913Z,47.07
2022-10-24T16:47:59.254Z,47.16
2022-10-24T16:50:03.558Z,47.12
2022-10-24T16:52:07.923Z,47.14
2022-10-24T16:54:12.232Z,47.31
2022-10-24T16:56:16.556Z,47.31
2022-10-24T16:58:20.868Z,47.21
2022-10-24T17:00:25.250Z,47.26
2022-10-24T17:02:29.584Z,47.36
2022-10-24T17:04:35.903Z,47.19
2022-10-24T17:06:40.240Z,47.21
2022-10-24T17:08:44.549Z,47.07
2022-10-24T17:10:51.915Z,47.34
2022-10-24T17:12:56.362Z,47.36
2022-10-24T17:15:00.717Z,47.58
2022-10-24T17:17:05.036Z,47.3
2022-10-24T17:19:19.237Z,47.76
2022-10-24T17:21:24.406Z,47.03
2022-10-24T17:23:31.220Z,47.24
2022-10-24T17:25:35.535Z,47.03
2022-10-24T17:27:39.853Z,47.11
2022-10-24T17:29:44.143Z,47.14
2022-10-24T17:31:48.513Z,47.07
2022-10-24T17:33:52.852Z,47.15
2022-10-24T17:35:57.258Z,47.35
2022-10-24T17:38:01.687Z,47.62
2022-10-24T17:40:06.079Z,47.55
2022-10-24T17:42:10.399Z,47.56
2022-10-24T17:44:14.871Z,47.69
2022-10-24T17:46:19.186Z,47.6
2022-10-24T17:48:23.618Z,47.86
2022-10-24T17:50:27.961Z,47.64
2022-10-24T17:52:32.270Z,47.79
2022-10-24T17:54:39.247Z,47.55
2022-10-24T17:56:45.480Z,47.54
2022-10-24T17:58:49.784Z,47.84
2022-10-24T18:00:54.415Z,47.74
2022-10-24T18:02:58.802Z,47.65
2022-10-24T18:05:03.113Z,48.53
2022-10-24T18:07:07.462Z,48.04
2022-10-24T18:09:11.777Z,47.76
2022-10-24T18:11:16.094Z,47.58
2022-10-24T18:13:20.577Z,47.88
2022-10-24T18:15:26.142Z,47.78
2022-10-24T18:17:30.482Z,47.77
2022-10-24T18:19:34.904Z,47.92
2022-10-24T18:21:39.299Z,47.96
2022-10-24T18:23:43.624Z,48.31
2022-10-24T18:25:51.055Z,48.24
2022-10-24T18:27:55.412Z,48.24
2022-10-24T18:29:59.718Z,48.11
2022-10-24T18:32:04.007Z,47.89
2022-10-24T18:34:10.820Z,47.98
2022-10-24T18:36:15.153Z,47.72
2022-10-24T18:38:19.470Z,47.7
2022-10-24T18:40:23.864Z,47.97
2022-10-24T18:42:28.182Z,47.8
2022-10-24T18:44:32.826Z,47.92
2022-10-24T18:46:37.383Z,47.99
2022-10-24T18:48:41.709Z,47.91
2022-10-24T18:50:46.022Z,47.92
2022-10-24T18:52:50.363Z,47.92
2022-10-24T18:54:54.685Z,48.11
2022-10-24T18:56:59.045Z,48.62
2022-10-24T18:59:03.412Z,48.57
2022-10-24T19:01:08.261Z,48.3
2022-10-24T19:03:12.767Z,48.24
2022-10-24T19:05:17.210Z,48.11
2022-10-24T19:07:21.620Z,47.96
2022-10-24T19:09:25.998Z,47.92
2022-10-24T19:11:30.471Z,48.16
2022-10-24T19:13:34.875Z,47.95
2022-10-24T19:15:39.231Z,48.09
2022-10-24T19:17:43.628Z,47.87
2022-10-24T19:19:48.048Z,47.77
2022-10-24T19:21:52.371Z,47.71
2022-10-24T19:23:56.712Z,47.48
2022-10-24T19:26:01.089Z,47.34
2022-10-24T19:28:05.457Z,48.05
2022-10-24T19:30:09.817Z,48.38
2022-10-24T19:32:14.161Z,48.16
2022-10-24T19:34:18.515Z,48.05
2022-10-24T19:36:23.136Z,47.89
2022-10-24T19:38:27.562Z,48.28
2022-10-24T19:40:31.980Z,48.28
2022-10-24T19:42:36.341Z,48.43
2022-10-24T19:44:41.011Z,47.84
2022-10-24T19:46:45.497Z,47.71
2022-10-24T19:48:49.878Z,47.54
2022-10-24T19:50:54.280Z,47.38
2022-10-24T19:52:58.699Z,47.33
2022-10-24T19:55:03.059Z,47.52
2022-10-24T19:57:07.462Z,47.61
2022-10-24T19:59:11.874Z,47.38
2022-10-24T20:01:16.869Z,47.84
2022-10-24T20:03:21.303Z,48.07
2022-10-24T20:05:25.642Z,48.07
2022-10-24T20:07:30.013Z,48.09
2022-10-24T20:09:34.368Z,47.67
2022-10-24T20:11:38.763Z,48.08
2022-10-24T20:13:43.157Z,47.7
2022-10-24T20:15:47.543Z,47.7
2022-10-24T20:17:51.947Z,47.45
2022-10-24T20:19:56.332Z,47.52
2022-10-24T20:22:04.309Z,47.25
2022-10-24T20:24:08.644Z,47.7
2022-10-24T20:26:13.052Z,47.53
2022-10-24T20:28:17.442Z,47.42
2022-10-24T20:30:21.797Z,47.22
2022-10-24T20:32:26.226Z,47.13
2022-10-24T20:34:30.805Z,47.26
2022-10-24T20:36:35.233Z,47.39
2022-10-24T20:38:39.585Z,47.2
2022-10-24T20:40:43.967Z,47.13
2022-10-24T20:42:48.362Z,47.58
2022-10-24T20:44:52.741Z,47.55
2022-10-24T20:46:57.092Z,47.32
2022-10-24T20:49:01.440Z,47.19
2022-10-24T20:51:05.788Z,47.02
2022-10-24T20:53:10.359Z,47.1
2022-10-24T20:55:45.255Z,47.4
2022-10-24T20:57:49.616Z,47.22
2022-10-24T20:59:53.968Z,47.39
2022-10-24T21:01:58.895Z,47.38
2022-10-24T21:04:03.317Z,47.25
2022-10-24T21:06:07.710Z,47.07
2022-10-24T21:08:12.058Z,47.13
2022-10-24T21:10:16.503Z,47.15
2022-10-24T21:12:20.915Z,46.9
2022-10-24T21:14:25.247Z,47.01
2022-10-24T21:16:29.619Z,47.46
2022-10-24T21:18:34.027Z,47.52
2022-10-24T21:20:38.381Z,47.32
2022-10-24T21:22:42.740Z,47.24
2022-10-24T21:24:47.181Z,46.84
2022-10-24T21:26:51.570Z,46.87
2022-10-24T21:29:32.531Z,46.91
2022-10-24T21:31:37.693Z,46.9
2022-10-24T21:33:42.067Z,46.75
2022-10-24T21:35:46.452Z,47.08
2022-10-24T21:37:51.160Z,46.96
2022-10-24T21:39:55.505Z,46.78
2022-10-24T21:41:59.892Z,46.79
2022-10-24T21:44:04.294Z,46.82
2022-10-24T21:46:08.617Z,46.83
2022-10-24T21:48:18.070Z,46.65
2022-10-24T21:50:22.507Z,46.56
2022-10-24T21:52:26.847Z,46.66
2022-10-24T21:54:31.227Z,46.66
2022-10-24T21:56:35.586Z,46.63
2022-10-24T21:58:39.899Z,46.5
2022-10-24T22:00:44.348Z,46.46
2022-10-24T22:02:50.435Z,46.52
2022-10-24T22:04:55.026Z,46.55
2022-10-24T22:06:59.406Z,46.39
2022-10-24T22:09:03.763Z,46.4
2022-10-24T22:11:08.143Z,46.49
2022-10-24T22:13:12.563Z,46.36
2022-10-24T22:15:16.926Z,46.43
2022-10-24T22:17:21.306Z,46.46
2022-10-24T22:19:25.635Z,46.46
2022-10-24T22:21:30.021Z,46.34
2022-10-24T22:23:34.368Z,46.33
2022-10-24T22:25:38.706Z,46.26
2022-10-24T22:27:43.245Z,46.26
2022-10-24T22:29:47.683Z,46.22
2022-10-24T22:31:52.027Z,46.24
2022-10-24T22:33:56.361Z,46.41
2022-10-24T22:36:00.754Z,46.29
2022-10-24T22:38:05.103Z,46.36
2022-10-24T22:40:09.450Z,46.35
2022-10-24T22:42:21.379Z,46.41
2022-10-24T22:44:25.768Z,46.41
2022-10-24T22:46:30.113Z,46.58
2022-10-24T22:48:34.583Z,46.43
2022-10-24T22:50:39.058Z,46.51
2022-10-24T22:52:43.700Z,46.42
2022-10-24T22:54:48.217Z,46.57
2022-10-24T22:56:52.599Z,46.52
2022-10-24T22:58:57.036Z,46.65
2022-10-24T23:01:01.836Z,46.45
2022-10-24T23:03:06.391Z,46.32
2022-10-24T23:05:10.753Z,46.37
2022-10-24T23:07:15.082Z,46.35
2022-10-24T23:09:19.406Z,46.26
2022-10-24T23:11:23.789Z,46.13
2022-10-24T23:13:28.138Z,46.25
2022-10-24T23:15:32.505Z,46.28
2022-10-24T23:17:36.821Z,46.12
2022-10-24T23:19:41.162Z,46.27
2022-10-24T23:21:45.534Z,46.27
2022-10-24T23:23:49.860Z,46.13
2022-10-24T23:25:54.669Z,46.22
2022-10-24T23:27:58.986Z,46.14
2022-10-24T23:30:03.430Z,45.93
2022-10-24T23:32:07.780Z,45.86
2022-10-24T23:34:12.123Z,45.87
2022-10-24T23:36:16.527Z,45.69
2022-10-24T23:38:20.834Z,45.81
2022-10-24T23:40:25.184Z,45.87
2022-10-24T23:42:29.536Z,45.81
2022-10-24T23:44:33.887Z,46
2022-10-24T23:46:38.213Z,45.68
2022-10-24T23:48:42.598Z,45.74
2022-10-24T23:50:46.968Z,45.7
2022-10-24T23:52:51.459Z,45.72
2022-10-24T23:54:55.801Z,45.63
2022-10-24T23:57:00.164Z,45.67
2022-10-24T23:59:04.633Z,45.54
